Time;durP1;ratioP1;P1;durP2;ratioP2;P2;SDS_P1;SDS_P2;PMS_P1;PMS_P2;Temp;Humidity;BMP_temperature;BMP_pressure;BME280_temperature;BME280_humidity;BME280_pressure;Samples;Min_cycle;Max_cycle;Signal;HPM_P1;HPM_P2
2023/04/02 00:01:38;;;;;;;1.60;1.50;;;;;;;13.66;52.50;97950.22;7094425;27;20227;-79
2023/04/02 00:05:33;;;;;;;1.40;1.40;;;;;;;13.63;52.59;97966.94;7106930;27;20280;-79
2023/04/02 00:08:57;;;;;;;1.63;1.53;;;;;;;13.65;52.51;97978.38;7047539;27;20575;-79
2023/04/02 00:12:19;;;;;;;1.50;1.40;;;;;;;13.56;52.68;97971.72;7081453;27;20308;-78
2023/04/02 00:15:43;;;;;;;1.70;1.60;;;;;;;13.17;53.72;97988.03;7082333;27;20203;-79
2023/04/02 00:19:06;;;;;;;2.33;1.50;;;;;;;13.41;52.89;97984.16;7082071;27;20287;-79
2023/04/02 00:22:31;;;;;;;1.33;1.33;;;;;;;13.38;53.49;97984.63;7081631;27;20606;-78
2023/04/02 00:25:52;;;;;;;1.20;1.20;;;;;;;13.66;52.39;97990.03;7081722;27;20660;-79
2023/04/02 00:29:15;;;;;;;1.50;1.30;;;;;;;13.43;52.75;97995.56;7081942;27;20267;-79
2023/04/02 00:32:37;;;;;;;1.60;1.50;;;;;;;13.36;53.18;97990.31;7081129;27;20353;-79
2023/04/02 00:35:59;;;;;;;1.50;1.40;;;;;;;13.78;52.36;97998.91;7096113;27;20249;-79
2023/04/02 00:39:24;;;;;;;1.67;1.67;;;;;;;13.30;52.60;97996.69;7081740;27;20209;-78
2023/04/02 00:42:46;;;;;;;1.50;1.50;;;;;;;13.45;53.00;97986.13;7080549;27;20228;-79
2023/04/02 00:46:12;;;;;;;2.10;1.40;;;;;;;13.69;51.92;97986.84;7081784;27;20209;-79
2023/04/02 00:49:36;;;;;;;1.40;1.40;;;;;;;13.36;52.99;98008.41;7080800;27;20213;-79
2023/04/02 00:52:58;;;;;;;1.40;1.40;;;;;;;13.45;52.56;97975.28;7081098;27;20224;-79
2023/04/02 00:56:26;;;;;;;1.80;1.70;;;;;;;13.46;52.74;97986.97;7081450;27;20602;-79
2023/04/02 00:59:56;;;;;;;1.70;1.70;;;;;;;13.43;52.79;98000.97;7080581;27;20210;-79
2023/04/02 01:03:46;;;;;;;1.70;1.40;;;;;;;13.64;51.96;98003.00;7081251;27;20228;-79
2023/04/02 01:07:10;;;;;;;1.73;1.57;;;;;;;13.66;52.33;98000.84;7057645;27;20576;-79
2023/04/02 01:10:44;;;;;;;1.60;1.50;;;;;;;13.36;53.01;98011.13;7062458;27;20203;-79
2023/04/02 01:14:13;;;;;;;1.40;1.30;;;;;;;13.53;52.94;98012.00;7079516;27;20284;-79
2023/04/02 01:17:47;;;;;;;1.70;1.60;;;;;;;13.45;52.78;98023.22;7080862;27;20187;-79
2023/04/02 01:21:31;;;;;;;2.40;1.67;;;;;;;13.59;52.88;98019.16;7078274;27;20579;-79
2023/04/02 01:24:56;;;;;;;1.40;1.40;;;;;;;13.59;52.36;98017.28;7080703;27;20633;-80
2023/04/02 01:28:20;;;;;;;1.43;1.40;;;;;;;13.17;53.05;97993.44;7080197;27;20294;-79
2023/04/02 01:31:44;;;;;;;1.60;1.50;;;;;;;13.45;52.76;98004.28;7079844;27;20207;-79
2023/04/02 01:35:07;;;;;;;2.20;2.00;;;;;;;13.89;51.85;98023.22;7080518;27;20234;-79
2023/04/02 01:38:35;;;;;;;1.50;1.50;;;;;;;13.60;52.42;98020.78;7080245;28;20203;-78
2023/04/02 01:42:03;;;;;;;1.47;1.40;;;;;;;13.90;51.50;98018.63;7079338;28;20219;-79
2023/04/02 01:45:24;;;;;;;1.40;1.40;;;;;;;14.25;50.45;98017.34;7080599;28;20211;-79
2023/04/02 01:48:47;;;;;;;2.10;1.50;;;;;;;13.78;51.72;98026.81;7080640;28;20572;-79
2023/04/02 01:52:09;;;;;;;1.57;1.43;;;;;;;13.86;51.81;98031.03;7078891;28;20217;-79
2023/04/02 01:55:34;;;;;;;1.73;1.60;;;;;;;14.08;51.39;98032.75;7079955;28;20250;-79
2023/04/02 01:58:56;;;;;;;1.60;1.50;;;;;;;14.06;51.39;98042.22;7080487;28;20287;-79
2023/04/02 02:02:20;;;;;;;1.50;1.40;;;;;;;13.26;52.81;98048.81;7079091;28;20223;-78
2023/04/02 02:05:43;;;;;;;1.60;1.50;;;;;;;13.19;53.17;98029.19;7079888;28;20213;-79
2023/04/02 02:09:06;;;;;;;1.87;1.77;;;;;;;13.90;51.42;98043.84;7080191;28;20212;-79
2023/04/02 02:12:28;;;;;;;1.40;1.40;;;;;;;13.87;51.79;98046.22;7079108;28;20219;-79
2023/04/02 02:15:49;;;;;;;2.13;1.60;;;;;;;14.08;51.00;98050.91;7079968;28;20263;-79
2023/04/02 02:19:19;;;;;;;1.20;1.20;;;;;;;13.79;51.71;98046.59;7078784;28;20623;-79
2023/04/02 02:22:44;;;;;;;1.30;1.30;;;;;;;13.57;52.87;98043.75;7079036;28;20229;-79
2023/04/02 02:26:06;;;;;;;1.57;1.47;;;;;;;13.64;53.12;98046.34;7085600;27;20204;-79
2023/04/02 02:29:28;;;;;;;1.60;1.50;;;;;;;13.84;52.79;98061.06;7084695;27;20216;-79
2023/04/02 02:32:53;;;;;;;1.47;1.47;;;;;;;14.24;51.75;98053.69;7084787;27;20652;-79
2023/04/02 02:36:21;;;;;;;1.70;1.67;;;;;;;14.17;51.29;98063.81;7085167;27;20203;-79
2023/04/02 02:39:45;;;;;;;2.20;1.53;;;;;;;13.86;51.97;98063.53;7083839;27;20577;-79
2023/04/02 02:43:10;;;;;;;1.50;1.40;;;;;;;14.28;51.18;98064.84;7090225;27;20283;-79
2023/04/02 02:46:32;;;;;;;1.30;1.30;;;;;;;14.18;51.43;98064.63;7093285;27;20352;-79
2023/04/02 02:49:55;;;;;;;1.47;1.47;;;;;;;13.94;52.22;98063.13;7083706;27;20257;-79
2023/04/02 02:53:20;;;;;;;1.77;1.50;;;;;;;13.85;51.72;98038.31;7084173;27;20280;-79
2023/04/02 02:56:47;;;;;;;2.10;2.00;;;;;;;14.26;51.16;98073.22;7084273;27;20659;-79
2023/04/02 03:00:11;;;;;;;1.40;1.40;;;;;;;13.59;52.58;98062.47;7083829;27;20267;-79
2023/04/02 03:03:33;;;;;;;1.83;1.73;;;;;;;14.05;51.42;98073.91;7084010;27;20234;-79
2023/04/02 03:06:56;;;;;;;1.50;1.40;;;;;;;13.99;52.08;98080.28;7083875;27;20201;-79
2023/04/02 03:10:21;;;;;;;1.37;1.37;;;;;;;14.04;51.09;98080.38;7083277;27;20733;-80
2023/04/02 03:13:46;;;;;;;1.60;1.50;;;;;;;14.14;51.13;98079.75;7084205;27;20309;-78
2023/04/02 03:17:13;;;;;;;1.57;1.50;;;;;;;14.04;51.51;98087.72;7083984;27;20253;-79
2023/04/02 03:20:38;;;;;;;2.90;1.70;;;;;;;14.04;51.79;98088.53;7081444;27;20209;-79
2023/04/02 03:24:01;;;;;;;1.47;1.47;;;;;;;14.35;50.74;98090.75;7083641;27;20300;-79
2023/04/02 03:27:25;;;;;;;1.63;1.30;;;;;;;14.29;50.76;98088.97;7084024;27;20241;-79
2023/04/02 03:30:50;;;;;;;1.63;1.53;;;;;;;13.68;52.48;98099.78;7083314;27;20203;-79
2023/04/02 03:34:16;;;;;;;1.47;1.47;;;;;;;13.67;52.63;98108.13;7083388;27;20762;-79
2023/04/02 03:37:42;;;;;;;1.53;1.47;;;;;;;13.96;51.98;98109.78;7083099;27;20303;-79
2023/04/02 03:41:06;;;;;;;8.27;1.70;;;;;;;13.84;51.70;98115.25;7082808;27;20255;-80
2023/04/02 03:44:30;;;;;;;1.50;1.40;;;;;;;14.06;51.64;98110.81;7083572;27;20335;-79
2023/04/02 03:47:56;;;;;;;1.70;1.60;;;;;;;14.23;51.22;98113.56;7083100;27;20237;-80
2023/04/02 03:51:20;;;;;;;1.73;1.63;;;;;;;13.98;51.81;98103.06;7082495;27;20269;-79
2023/04/02 03:54:42;;;;;;;1.60;1.50;;;;;;;13.72;52.83;98119.06;7082687;27;20575;-79
2023/04/02 03:58:07;;;;;;;1.60;1.50;;;;;;;13.72;52.54;98130.75;7083143;27;20718;-79
2023/04/02 04:01:34;;;;;;;1.60;1.50;;;;;;;14.02;51.94;98116.94;7082297;27;20330;-79
2023/04/02 04:04:57;;;;;;;1.50;1.50;;;;;;;14.44;51.16;98129.09;7082088;27;20227;-79
2023/04/02 04:08:22;;;;;;;1.40;1.40;;;;;;;14.20;51.46;98127.59;7081875;27;20260;-79
2023/04/02 04:11:45;;;;;;;2.13;1.57;;;;;;;13.77;52.04;98121.88;7081186;27;20203;-79
2023/04/02 04:15:09;;;;;;;1.70;1.60;;;;;;;14.07;52.03;98138.72;7081611;27;20227;-79
2023/04/02 04:18:36;;;;;;;1.67;1.57;;;;;;;14.21;51.72;98134.69;7082139;27;20666;-79
2023/04/02 04:22:10;;;;;;;1.70;1.60;;;;;;;14.18;51.62;98130.53;7082152;27;20652;-78
2023/04/02 04:25:33;;;;;;;1.60;1.50;;;;;;;13.98;52.54;98151.84;7102941;27;20184;-78
2023/04/02 04:29:04;;;;;;;1.60;1.50;;;;;;;14.21;51.93;98146.34;7090327;27;20215;-78
2023/04/02 04:32:30;;;;;;;1.60;1.40;;;;;;;14.24;51.63;98155.88;7080872;27;20653;-78
2023/04/02 04:35:55;;;;;;;1.70;1.60;;;;;;;13.91;52.33;98164.72;7080678;27;20219;-78
2023/04/02 04:39:22;;;;;;;1.83;1.50;;;;;;;14.04;51.99;98169.84;7081141;27;20574;-79
2023/04/02 04:42:46;;;;;;;1.90;1.80;;;;;;;14.19;51.99;98169.34;7080573;27;20238;-78
2023/04/02 04:46:10;;;;;;;1.70;1.60;;;;;;;14.05;52.04;98182.31;7080389;27;20349;-78
2023/04/02 04:49:34;;;;;;;2.13;1.70;;;;;;;14.29;51.88;98183.88;7079752;27;20577;-78
2023/04/02 04:52:56;;;;;;;2.07;1.87;;;;;;;13.58;53.67;98188.16;7088219;27;20237;-78
2023/04/02 04:56:21;;;;;;;3.10;1.90;;;;;;;13.96;52.44;98188.38;7086037;27;20292;-79
2023/04/02 04:59:46;;;;;;;1.90;1.53;;;;;;;13.53;54.05;98198.88;7079992;27;20650;-78
2023/04/02 05:03:15;;;;;;;1.80;1.70;;;;;;;13.10;55.03;98193.03;7080277;27;20306;-79
2023/04/02 05:06:40;;;;;;;1.93;1.70;;;;;;;13.71;54.16;98201.41;7080115;27;20187;-78
2023/04/02 05:10:07;;;;;;;2.00;1.90;;;;;;;13.88;53.65;98194.19;7079321;27;20230;-79
2023/04/02 05:13:33;;;;;;;2.07;1.97;;;;;;;14.05;52.85;98208.63;7080264;27;20275;-79
2023/04/02 05:16:59;;;;;;;2.53;1.90;;;;;;;13.79;53.54;98220.00;7080434;27;20630;-78
2023/04/02 05:20:24;;;;;;;2.00;1.90;;;;;;;14.08;52.68;98216.25;7077684;27;20237;-78
2023/04/02 05:23:49;;;;;;;1.90;1.80;;;;;;;13.71;53.60;98215.78;7079871;27;20594;-79
2023/04/02 05:27:18;;;;;;;1.70;1.60;;;;;;;13.70;53.90;98216.84;7080209;27;20384;-79
2023/04/02 05:30:51;;;;;;;1.70;1.60;;;;;;;14.00;52.96;98228.31;7079218;27;20201;-79
2023/04/02 05:34:13;;;;;;;1.60;1.60;;;;;;;14.23;52.58;98232.84;7080261;27;20271;-79
2023/04/02 05:37:35;;;;;;;2.17;1.73;;;;;;;14.29;52.08;98238.13;7079721;27;20300;-78
2023/04/02 05:41:00;;;;;;;1.90;1.80;;;;;;;13.95;52.99;98246.34;7079485;28;20345;-78
2023/04/02 05:44:24;;;;;;;1.90;1.80;;;;;;;14.35;52.33;98233.63;7079608;28;20238;-79
2023/04/02 05:47:49;;;;;;;1.90;1.70;;;;;;;14.34;52.42;98251.78;7079435;28;20196;-79
2023/04/02 05:51:16;;;;;;;3.00;2.10;;;;;;;14.34;52.10;98249.06;7078376;28;20212;-79
2023/04/02 05:54:42;;;;;;;2.17;2.00;;;;;;;14.37;52.48;98251.31;7079779;28;20664;-79
2023/04/02 05:58:06;;;;;;;2.07;1.97;;;;;;;14.33;52.33;98246.63;7079565;27;20286;-78
2023/04/02 06:01:37;;;;;;;2.47;1.70;;;;;;;14.55;52.34;98258.41;7084786;27;20200;-78
2023/04/02 06:05:03;;;;;;;2.17;1.97;;;;;;;14.66;51.67;98268.38;7085090;27;20291;-79
2023/04/02 06:08:29;;;;;;;3.33;1.70;;;;;;;14.88;50.51;98261.19;7084947;27;20341;-79
2023/04/02 06:11:56;;;;;;;1.60;1.50;;;;;;;14.92;50.50;98268.59;7084632;27;20344;-78
2023/04/02 06:15:19;;;;;;;4.33;1.70;;;;;;;14.91;51.12;98260.69;7084704;27;20295;-78
2023/04/02 06:18:41;;;;;;;1.90;1.80;;;;;;;14.91;49.98;98277.81;7084521;27;20210;-78
2023/04/02 06:22:10;;;;;;;1.80;1.70;;;;;;;14.83;50.53;98255.66;7082503;27;20195;-78
2023/04/02 06:25:35;;;;;;;1.90;1.70;;;;;;;14.88;51.12;98291.03;7084750;27;20208;-78
2023/04/02 06:29:01;;;;;;;2.07;1.70;;;;;;;14.95;50.58;98284.41;7084086;27;20203;-78
2023/04/02 06:32:24;;;;;;;1.50;1.50;;;;;;;14.38;51.17;98266.50;7084092;27;20702;-78
2023/04/02 06:35:46;;;;;;;4.20;2.20;;;;;;;14.58;51.98;98307.56;7084306;27;20216;-78
2023/04/02 06:39:17;;;;;;;2.20;2.00;;;;;;;14.35;51.92;98315.81;7083889;27;20206;-79
2023/04/02 06:42:39;;;;;;;3.47;2.40;;;;;;;14.13;53.39;98319.38;7083485;27;20279;-78
2023/04/02 06:46:03;;;;;;;1.90;1.70;;;;;;;14.52;52.43;98324.00;7083517;27;20233;-79
2023/04/02 06:49:29;;;;;;;2.30;2.10;;;;;;;14.71;51.35;98329.00;7083533;27;20238;-78
2023/04/02 06:52:52;;;;;;;2.10;2.00;;;;;;;14.81;51.21;98309.38;7083339;27;20286;-79
2023/04/02 06:56:22;;;;;;;2.10;2.00;;;;;;;14.96;50.84;98339.50;7083441;27;20350;-79
2023/04/02 06:59:43;;;;;;;1.80;1.70;;;;;;;14.91;51.37;98351.09;7083296;27;20657;-78
2023/04/02 07:03:07;;;;;;;2.40;2.00;;;;;;;15.15;50.20;98349.91;7096071;27;20279;-79
2023/04/02 07:06:28;;;;;;;2.30;2.07;;;;;;;15.25;49.67;98357.41;7083768;27;20206;-79
2023/04/02 07:09:50;;;;;;;1.80;1.70;;;;;;;15.28;49.43;98355.00;7082067;27;20272;-79
2023/04/02 07:13:15;;;;;;;1.80;1.63;;;;;;;15.30;49.95;98363.75;7082990;27;20649;-79
2023/04/02 07:16:36;;;;;;;2.37;1.80;;;;;;;15.20;50.31;98371.72;7083349;27;20274;-78
2023/04/02 07:19:58;;;;;;;2.43;1.80;;;;;;;15.36;49.75;98364.69;7080229;27;20264;-78
2023/04/02 07:23:20;;;;;;;1.83;1.73;;;;;;;15.36;49.91;98370.94;7082861;27;20371;-79
2023/04/02 07:26:41;;;;;;;1.90;1.80;;;;;;;15.00;50.84;98352.34;7082644;27;20213;-79
2023/04/02 07:30:06;;;;;;;1.90;1.80;;;;;;;15.31;49.69;98380.84;7082662;27;20291;-79
2023/04/02 07:33:29;;;;;;;3.80;1.60;;;;;;;15.30;50.15;98390.06;7083075;27;20274;-79
2023/04/02 07:36:51;;;;;;;1.73;1.63;;;;;;;15.29;50.32;98391.97;7083074;27;20679;-80
2023/04/02 07:40:17;;;;;;;1.70;1.60;;;;;;;15.51;50.34;98392.94;7081979;27;20664;-79
2023/04/02 07:43:38;;;;;;;1.60;1.50;;;;;;;15.63;50.03;98398.28;7082282;27;20603;-79
2023/04/02 07:47:01;;;;;;;1.53;1.47;;;;;;;15.43;50.00;98376.22;7082038;27;20208;-79
2023/04/02 07:50:23;;;;;;;2.07;1.70;;;;;;;15.73;48.10;98393.84;7081363;27;20254;-79
2023/04/02 07:53:48;;;;;;;2.00;1.80;;;;;;;15.36;48.98;98395.41;7081840;27;20736;-79
2023/04/02 07:57:10;;;;;;;1.93;1.83;;;;;;;15.02;50.10;98379.25;7082413;27;20201;-79
2023/04/02 08:00:31;;;;;;;3.03;2.60;;;;;;;15.44;50.03;98415.88;7081384;27;20207;-79
2023/04/02 08:03:55;;;;;;;2.30;2.10;;;;;;;15.36;50.19;98419.84;7081529;27;20232;-79
2023/04/02 08:07:17;;;;;;;1.80;1.70;;;;;;;15.27;50.48;98415.03;7082074;27;20297;-78
2023/04/02 08:10:39;;;;;;;1.80;1.70;;;;;;;15.09;51.13;98436.94;7081904;27;20205;-78
2023/04/02 08:14:00;;;;;;;2.43;1.90;;;;;;;15.40;50.83;98433.75;7082454;27;20287;-79
2023/04/02 08:17:22;;;;;;;2.37;2.13;;;;;;;15.64;50.88;98446.13;7080400;27;20209;-79
2023/04/02 08:20:45;;;;;;;1.77;1.67;;;;;;;15.69;50.01;98448.94;7087572;27;20235;-79
2023/04/02 08:24:07;;;;;;;4.77;2.00;;;;;;;15.69;50.66;98447.03;7103109;27;20246;-78
2023/04/02 08:27:28;;;;;;;1.87;1.50;;;;;;;15.68;50.01;98458.97;7102444;27;20205;-78
2023/04/02 08:30:51;;;;;;;2.00;1.90;;;;;;;15.66;50.48;98460.28;7089224;27;20205;-78
2023/04/02 08:34:12;;;;;;;1.60;1.50;;;;;;;16.07;48.43;98455.28;7080810;27;20719;-78
2023/04/02 08:37:35;;;;;;;2.07;1.53;;;;;;;16.35;47.58;98460.59;7098994;27;20291;-78
2023/04/02 08:41:00;;;;;;;1.90;1.80;;;;;;;16.07;47.94;98447.13;7109034;27;20299;-79
2023/04/02 08:44:31;;;;;;;2.03;1.93;;;;;;;16.12;47.83;98468.97;7108900;27;20341;-79
2023/04/02 08:47:54;;;;;;;1.80;1.70;;;;;;;15.84;48.84;98479.09;7109199;27;20213;-79
2023/04/02 08:51:22;;;;;;;2.67;2.00;;;;;;;15.94;48.96;98480.09;7108168;27;20224;-79
2023/04/02 08:54:46;;;;;;;1.93;1.83;;;;;;;15.96;48.96;98483.38;7108960;27;20230;-79
2023/04/02 08:58:17;;;;;;;2.00;1.80;;;;;;;15.64;48.95;98485.00;7109238;27;20346;-79
2023/04/02 09:01:45;;;;;;;1.70;1.60;;;;;;;15.69;48.96;98493.25;7108347;27;20215;-79
2023/04/02 09:05:15;;;;;;;4.10;1.60;;;;;;;15.72;48.44;98486.50;7108905;27;20677;-78
2023/04/02 09:08:36;;;;;;;1.90;1.60;;;;;;;15.60;48.28;98462.13;7108847;27;20263;-79
2023/04/02 09:12:02;;;;;;;3.40;3.10;;;;;;;15.99;49.10;98512.00;7119447;27;20283;-79
2023/04/02 09:15:29;;;;;;;3.40;3.10;;;;;;;16.14;48.83;98514.94;7052179;28;20197;-79
2023/04/02 09:18:52;;;;;;;3.00;2.73;;;;;;;16.36;48.42;98510.41;7051618;28;20202;-78
2023/04/02 09:22:19;;;;;;;2.83;2.63;;;;;;;16.02;48.65;98519.63;7049358;28;20741;-79
2023/04/02 09:25:44;;;;;;;2.03;1.90;;;;;;;15.32;50.20;98526.47;7051272;28;20228;-78
2023/04/02 09:29:25;;;;;;;3.77;2.93;;;;;;;16.06;49.27;98524.34;7051290;28;20215;-79
2023/04/02 09:32:49;;;;;;;1.83;1.70;;;;;;;16.00;49.15;98530.78;7050800;28;20365;-78
2023/04/02 09:36:26;;;;;;;2.10;1.90;;;;;;;16.25;48.84;98539.34;7051279;28;20207;-79
2023/04/02 09:39:47;;;;;;;2.23;2.00;;;;;;;16.54;47.92;98531.94;7051058;28;20197;-79
2023/04/02 09:43:12;;;;;;;2.33;2.10;;;;;;;16.48;48.01;98528.31;7051139;28;20263;-79
2023/04/02 09:46:35;;;;;;;1.97;1.87;;;;;;;16.71;46.97;98552.63;7051883;28;20690;-79
2023/04/02 09:50:13;;;;;;;1.93;1.83;;;;;;;16.48;48.05;98560.16;7050497;28;20350;-79
2023/04/02 09:53:36;;;;;;;1.97;1.67;;;;;;;16.36;48.02;98560.22;7050893;28;20234;-79
2023/04/02 09:57:00;;;;;;;13.67;11.47;;;;;;;16.34;48.71;98558.81;7051173;28;20266;-78
2023/04/02 10:00:25;;;;;;;2.20;2.00;;;;;;;16.38;47.96;98563.53;7050564;28;20559;-79
2023/04/02 10:03:49;;;;;;;1.90;1.80;;;;;;;17.36;46.16;98560.84;7051290;28;20728;-78
2023/04/02 10:07:31;;;;;;;1.73;1.63;;;;;;;17.53;45.81;98567.09;7051100;28;20297;-78
2023/04/02 10:10:54;;;;;;;2.27;1.90;;;;;;;18.12;44.16;98563.34;7050573;28;20627;-78
2023/04/02 10:14:17;;;;;;;1.70;1.60;;;;;;;18.35;43.33;98568.50;7050973;28;20220;-79
2023/04/02 10:17:40;;;;;;;2.30;2.00;;;;;;;17.99;44.40;98571.94;7051175;28;20799;-79
2023/04/02 10:21:05;;;;;;;1.57;1.47;;;;;;;17.47;44.79;98570.81;7048878;28;20215;-79
2023/04/02 10:24:27;;;;;;;2.80;1.73;;;;;;;17.12;45.68;98579.34;7050585;28;20721;-78
2023/04/02 10:27:52;;;;;;;1.80;1.63;;;;;;;17.25;45.24;98580.88;7051200;28;20284;-79
2023/04/02 10:31:16;;;;;;;1.60;1.50;;;;;;;17.33;45.42;98583.16;7050314;28;20288;-79
2023/04/02 10:34:43;;;;;;;1.50;1.40;;;;;;;17.66;44.25;98577.59;7050673;28;20229;-78
2023/04/02 10:38:37;;;;;;;1.50;1.50;;;;;;;17.72;44.25;98579.28;7050831;28;20264;-79
2023/04/02 10:42:03;;;;;;;3.33;2.20;;;;;;;17.64;44.47;98583.28;7050140;28;20212;-78
2023/04/02 10:45:35;;;;;;;3.00;2.57;;;;;;;17.75;45.12;98585.06;7051345;28;20215;-79
2023/04/02 10:49:04;;;;;;;1.47;1.37;;;;;;;16.79;46.05;98584.88;7055968;28;20218;-79
2023/04/02 10:52:28;;;;;;;1.47;1.47;;;;;;;17.27;46.04;98595.88;7054926;28;20231;-79
2023/04/02 10:55:52;;;;;;;1.60;1.50;;;;;;;17.10;46.62;98603.28;7055229;28;20256;-78
2023/04/02 10:59:18;;;;;;;1.90;1.50;;;;;;;17.49;45.16;98607.66;7055718;28;20204;-79
2023/04/02 11:02:46;;;;;;;2.33;2.23;;;;;;;17.33;46.38;98610.41;7054685;28;20228;-78
2023/04/02 11:06:14;;;;;;;3.53;3.23;;;;;;;17.51;45.87;98605.50;7055143;28;20332;-79
2023/04/02 11:09:39;;;;;;;1.70;1.60;;;;;;;16.73;47.38;98606.81;7055822;28;20208;-80
2023/04/02 11:13:07;;;;;;;1.70;1.60;;;;;;;17.28;45.84;98613.06;7071007;28;20646;-79
2023/04/02 11:16:29;;;;;;;1.63;1.53;;;;;;;17.63;46.44;98614.38;7067786;28;20222;-79
2023/04/02 11:19:51;;;;;;;2.07;1.93;;;;;;;17.85;45.34;98625.25;7071887;27;20218;-79
2023/04/02 11:23:13;;;;;;;1.70;1.60;;;;;;;18.24;44.73;98618.56;7085564;27;20231;-79
2023/04/02 11:26:38;;;;;;;1.50;1.40;;;;;;;17.55;44.78;98623.00;7083101;27;20231;-79
2023/04/02 11:30:05;;;;;;;1.60;1.43;;;;;;;17.09;45.41;98612.53;7082514;27;20744;-79
2023/04/02 11:33:39;;;;;;;1.97;1.87;;;;;;;17.37;45.83;98625.16;7088758;27;20355;-78
2023/04/02 11:37:06;;;;;;;1.70;1.60;;;;;;;16.91;46.60;98634.59;7100814;27;20244;-79
2023/04/02 11:40:48;;;;;;;1.40;1.30;;;;;;;16.39;47.70;98633.22;7086168;27;20348;-79
2023/04/02 11:44:23;;;;;;;1.70;1.60;;;;;;;16.53;47.04;98639.16;7090523;27;20231;-79
2023/04/02 11:48:24;;;;;;;1.20;1.20;;;;;;;16.44;46.59;98629.75;7084076;27;20534;-78
2023/04/02 11:51:50;;;;;;;1.30;1.30;;;;;;;17.09;45.62;98639.78;7081808;27;20217;-78
2023/04/02 11:55:23;;;;;;;2.47;1.40;;;;;;;17.55;46.32;98649.44;7082341;27;20714;-79
2023/04/02 11:58:55;;;;;;;4.03;2.70;;;;;;;17.65;45.74;98642.22;7081689;27;20204;-79
2023/04/02 12:02:23;;;;;;;1.00;1.00;;;;;;;17.15;45.21;98659.75;7081282;27;20314;-79
2023/04/02 12:05:53;;;;;;;6.13;5.60;;;;;;;17.81;44.53;98652.22;7081767;27;20259;-79
2023/04/02 12:09:19;;;;;;;8.60;7.87;;;;;;;17.87;43.56;98656.66;7082065;27;20634;-79
2023/04/02 12:12:41;;;;;;;2.30;2.10;;;;;;;17.78;44.99;98658.19;7080830;27;20262;-79
2023/04/02 12:16:03;;;;;;;2.37;2.17;;;;;;;17.99;44.01;98664.69;7081988;27;20200;-80
2023/04/02 12:19:26;;;;;;;2.43;2.17;;;;;;;18.33;43.25;98658.00;7080772;27;20255;-78
2023/04/02 12:22:51;;;;;;;4.13;3.67;;;;;;;17.95;43.94;98666.28;7080893;27;20256;-79
2023/04/02 12:26:30;;;;;;;7.00;5.53;;;;;;;18.28;44.88;98666.91;7081472;27;20301;-79
2023/04/02 12:29:52;;;;;;;9.93;7.93;;;;;;;18.57;43.80;98673.78;7080550;27;20265;-79
2023/04/02 12:33:15;;;;;;;3.10;2.70;;;;;;;17.98;44.54;98627.59;7081252;27;20303;-79
2023/04/02 12:36:37;;;;;;;3.67;3.00;;;;;;;17.75;45.30;98680.50;7081014;27;20255;-79
2023/04/02 12:40:05;;;;;;;2.77;2.57;;;;;;;17.97;44.41;98678.59;7080503;27;20206;-78
2023/04/02 12:43:28;;;;;;;6.97;5.07;;;;;;;17.76;45.03;98676.69;7080958;27;20282;-78
2023/04/02 12:46:51;;;;;;;7.60;5.43;;;;;;;18.20;44.56;98686.50;7081120;27;20709;-80
2023/04/02 12:50:14;;;;;;;1.80;1.70;;;;;;;17.57;44.91;98672.63;7079918;27;20207;-79
2023/04/02 12:53:37;;;;;;;1.40;1.30;;;;;;;17.30;45.13;98692.66;7080249;27;20241;-79
2023/04/02 12:57:22;;;;;;;1.60;1.50;;;;;;;17.64;45.16;98694.28;7080526;27;20202;-79
2023/04/02 13:00:43;;;;;;;1.60;1.50;;;;;;;17.58;45.93;98692.56;7079701;27;20245;-79
2023/04/02 13:04:07;;;;;;;1.60;1.50;;;;;;;17.79;45.29;98699.91;7080174;27;20314;-79
2023/04/02 13:07:30;;;;;;;1.57;1.47;;;;;;;17.75;45.30;98696.84;7079980;27;20368;-79
2023/04/02 13:10:54;;;;;;;1.30;1.30;;;;;;;16.79;46.11;98710.13;7078937;27;20207;-79
2023/04/02 13:14:18;;;;;;;1.80;1.70;;;;;;;16.33;50.03;98707.63;7079979;27;20226;-79
2023/04/02 13:17:43;;;;;;;2.00;1.90;;;;;;;15.88;51.16;98714.91;7079842;27;20340;-78
2023/04/02 13:21:06;;;;;;;2.07;1.60;;;;;;;16.25;51.00;98715.34;7072512;27;20219;-79
2023/04/02 13:24:29;;;;;;;1.73;1.63;;;;;;;15.65;51.48;98714.97;7079375;27;20312;-79
2023/04/02 13:27:52;;;;;;;1.57;1.47;;;;;;;15.55;51.35;98719.34;7081923;27;20203;-79
2023/04/02 13:31:16;;;;;;;1.70;1.60;;;;;;;15.72;52.01;98726.53;7090003;27;20210;-79
2023/04/02 13:34:38;;;;;;;1.50;1.50;;;;;;;15.87;51.09;98742.34;7079859;27;20233;-78
2023/04/02 13:38:01;;;;;;;1.53;1.43;;;;;;;15.97;51.82;98732.47;7079717;27;20201;-79
2023/04/02 13:41:25;;;;;;;1.80;1.70;;;;;;;15.92;51.97;98737.81;7078932;28;20739;-78
2023/04/02 13:44:46;;;;;;;1.80;1.70;;;;;;;15.84;52.57;98742.81;7079629;28;20260;-79
2023/04/02 13:48:13;;;;;;;1.80;1.70;;;;;;;15.74;52.44;98732.53;7079333;28;20301;-79
2023/04/02 13:51:37;;;;;;;1.67;1.57;;;;;;;16.16;52.07;98754.91;7078710;28;20305;-79
2023/04/02 13:55:00;;;;;;;1.83;1.73;;;;;;;15.77;52.96;98753.81;7079604;28;20308;-79
2023/04/02 13:58:21;;;;;;;1.60;1.60;;;;;;;15.46;53.51;98753.38;7079650;28;20205;-79
2023/04/02 14:01:44;;;;;;;1.87;1.77;;;;;;;15.94;51.91;98753.91;7078919;28;20885;-79
2023/04/02 14:05:15;;;;;;;1.50;1.40;;;;;;;15.97;52.02;98765.13;7079149;28;20272;-79
2023/04/02 14:08:46;;;;;;;1.50;1.50;;;;;;;15.62;52.73;98775.22;7079115;28;20240;-79
2023/04/02 14:12:12;;;;;;;1.30;1.30;;;;;;;15.64;53.22;98775.00;7078446;28;20289;-79
2023/04/02 14:15:42;;;;;;;1.40;1.40;;;;;;;16.22;51.21;98784.66;7076664;28;20202;-78
2023/04/02 14:19:13;;;;;;;1.63;1.53;;;;;;;15.30;52.94;98762.22;7050897;28;20219;-78
2023/04/02 14:22:45;;;;;;;1.67;1.57;;;;;;;15.40;52.54;98795.91;7055758;28;20260;-79
2023/04/02 14:26:13;;;;;;;1.90;1.80;;;;;;;15.91;52.41;98804.16;7056007;28;20218;-79
2023/04/02 14:29:38;;;;;;;1.57;1.50;;;;;;;15.15;53.49;98813.47;7055394;28;20209;-78
2023/04/02 14:33:05;;;;;;;1.80;1.70;;;;;;;14.61;55.29;98811.78;7055792;28;20298;-79
2023/04/02 14:36:35;;;;;;;1.53;1.50;;;;;;;15.02;53.43;98814.50;7056076;28;20206;-78
2023/04/02 14:40:05;;;;;;;1.70;1.60;;;;;;;14.58;55.30;98824.97;7055146;28;20206;-78
2023/04/02 14:43:30;;;;;;;1.97;1.77;;;;;;;15.37;53.19;98834.41;7055886;28;20821;-79
2023/04/02 14:46:53;;;;;;;1.83;1.73;;;;;;;14.62;54.26;98823.47;7055394;28;20299;-79
2023/04/02 14:50:17;;;;;;;1.87;1.77;;;;;;;14.05;56.49;98822.06;7055101;28;20657;-78
2023/04/02 14:53:45;;;;;;;2.07;1.97;;;;;;;14.67;54.82;98829.84;7055825;28;20326;-79
2023/04/02 14:57:15;;;;;;;2.77;1.87;;;;;;;14.55;54.98;98839.00;7055514;28;20231;-78
2023/04/02 15:00:40;;;;;;;2.20;2.10;;;;;;;13.97;55.80;98837.81;7054717;28;20643;-78
2023/04/02 15:04:03;;;;;;;2.03;1.93;;;;;;;14.05;56.53;98845.66;7055481;28;20776;-79
2023/04/02 15:07:29;;;;;;;2.13;2.03;;;;;;;14.71;55.44;98855.47;7054820;28;20840;-78
2023/04/02 15:10:58;;;;;;;2.47;2.37;;;;;;;13.63;56.56;98865.50;7054694;28;20730;-78
2023/04/02 15:14:24;;;;;;;2.70;2.50;;;;;;;12.95;58.59;98863.72;7055138;28;20324;-78
2023/04/02 15:17:45;;;;;;;2.83;2.50;;;;;;;12.88;59.08;98858.38;7055690;28;20586;-78
2023/04/02 15:21:38;;;;;;;2.93;2.60;;;;;;;13.32;58.64;98862.84;7053648;28;20206;-79
2023/04/02 15:25:08;;;;;;;3.13;2.93;;;;;;;13.31;58.91;98864.72;7054294;28;20597;-79
2023/04/02 15:28:32;;;;;;;2.70;2.50;;;;;;;13.95;56.50;98869.75;7054384;28;20203;-78
2023/04/02 15:31:59;;;;;;;2.67;2.47;;;;;;;14.06;56.97;98871.72;7052674;28;20204;-78
2023/04/02 15:35:31;;;;;;;2.63;2.43;;;;;;;13.22;58.18;98887.69;7054522;28;20244;-78
2023/04/02 15:38:59;;;;;;;2.90;2.70;;;;;;;13.75;56.55;98882.69;7064341;28;20301;-78
2023/04/02 15:42:24;;;;;;;2.70;2.50;;;;;;;13.27;57.81;98900.59;7061143;28;20717;-78
2023/04/02 15:45:51;;;;;;;2.70;2.50;;;;;;;12.53;59.66;98891.44;7053993;28;20307;-78
2023/04/02 15:49:30;;;;;;;2.80;2.60;;;;;;;13.06;58.52;98917.19;7054420;28;20188;-79
2023/04/02 15:52:56;;;;;;;2.60;2.40;;;;;;;12.91;58.35;98914.75;7053477;28;20280;-77
2023/04/02 15:56:22;;;;;;;3.27;2.60;;;;;;;12.99;57.54;98914.50;7053905;28;20275;-78
2023/04/02 15:59:52;;;;;;;2.63;2.43;;;;;;;13.53;56.49;98917.47;7053882;28;20261;-77
2023/04/02 16:03:21;;;;;;;2.23;2.13;;;;;;;13.14;56.24;98936.72;7063917;27;20263;-77
2023/04/02 16:06:53;;;;;;;2.70;2.50;;;;;;;13.15;55.69;98921.31;7081892;27;20199;-76
2023/04/02 16:10:19;;;;;;;3.10;2.10;;;;;;;13.36;53.93;98942.59;7066051;27;20269;-76